Aviation Digital Data Service (ADDS)

Output produced by METARs form (0342 UTC 26 April 2019)
found at http://www.aviationweather.gov/metar/data/
 
METAR text: EKCH 260320Z 04007KT 2200 BR NSC 09/08 Q1012 TEMPO 4000
Conditions at: EKCH (COPENHAGEN/KASTR, DK) observed 0320 UTC 26 April 2019
Temperature: 9.0°C (48°F)
Dewpoint: 8.0°C (46°F) [RH = 93%]
Pressure (altimeter): 29.88 inches Hg (1012.0 mb)
Winds: from the NE (40 degrees) at 8 MPH (7 knots; 3.6 m/s)
Visibility: 1.37 miles (2.20 km)
Ceiling: at least 12,000 feet AGL
Clouds: sky clear below 12,000 feet AGL
Weather: BR  (mist)

METAR text: EKCH 260250Z 05005KT 2500 BR NSC 09/08 Q1012 TEMPO 4000
Conditions at: EKCH (COPENHAGEN/KASTR, DK) observed 0250 UTC 26 April 2019
Temperature: 9.0°C (48°F)
Dewpoint: 8.0°C (46°F) [RH = 93%]
Pressure (altimeter): 29.88 inches Hg (1012.0 mb)
Winds: from the NE (50 degrees) at 6 MPH (5 knots; 2.6 m/s)
Visibility: 1.55 miles (2.49 km)
Ceiling: at least 12,000 feet AGL
Clouds: sky clear below 12,000 feet AGL
Weather: BR  (mist)

METAR text: EKCH 260220Z 06005KT 1800 BR NSC 08/07 Q1012 TEMPO 4000
Conditions at: EKCH (COPENHAGEN/KASTR, DK) observed 0220 UTC 26 April 2019
Temperature: 8.0°C (46°F)
Dewpoint: 7.0°C (45°F) [RH = 93%]
Pressure (altimeter): 29.88 inches Hg (1012.0 mb)
Winds: from the ENE (60 degrees) at 6 MPH (5 knots; 2.6 m/s)
Visibility: 1.12 miles (1.80 km)
Ceiling: at least 12,000 feet AGL
Clouds: sky clear below 12,000 feet AGL
Weather: BR  (mist)

METAR text: EKCH 260150Z 05004KT 2200 BR NSC 08/07 Q1013 TEMPO 4000
Conditions at: EKCH (COPENHAGEN/KASTR, DK) observed 0150 UTC 26 April 2019
Temperature: 8.0°C (46°F)
Dewpoint: 7.0°C (45°F) [RH = 93%]
Pressure (altimeter): 29.91 inches Hg (1013.0 mb)
Winds: from the NE (50 degrees) at 5 MPH (4 knots; 2.1 m/s)
Visibility: 1.37 miles (2.20 km)
Ceiling: at least 12,000 feet AGL
Clouds: sky clear below 12,000 feet AGL
Weather: BR  (mist)

METAR text: EKCH 260120Z 07005KT 2500 BR NSC 09/08 Q1013 TEMPO 4000
Conditions at: EKCH (COPENHAGEN/KASTR, DK) observed 0120 UTC 26 April 2019
Temperature: 9.0°C (48°F)
Dewpoint: 8.0°C (46°F) [RH = 93%]
Pressure (altimeter): 29.91 inches Hg (1013.0 mb)
Winds: from the ENE (70 degrees) at 6 MPH (5 knots; 2.6 m/s)
Visibility: 1.55 miles (2.49 km)
Ceiling: at least 12,000 feet AGL
Clouds: sky clear below 12,000 feet AGL
Weather: BR  (mist)

METAR text: EKCH 260050Z 06006KT 2800 BR NSC 09/09 Q1013 TEMPO 4000
Conditions at: EKCH (COPENHAGEN/KASTR, DK) observed 0050 UTC 26 April 2019
Temperature: 9.0°C (48°F)
Dewpoint: 9.0°C (48°F) [RH = 100%]
Pressure (altimeter): 29.91 inches Hg (1013.0 mb)
Winds: from the ENE (60 degrees) at 7 MPH (6 knots; 3.1 m/s)
Visibility: 1.74 miles (2.80 km)
Ceiling: at least 12,000 feet AGL
Clouds: sky clear below 12,000 feet AGL
Weather: BR  (mist)

METAR text: EKCH 260020Z 04007KT 2200 BR NSC 10/09 Q1013 TEMPO 4000
Conditions at: EKCH (COPENHAGEN/KASTR, DK) observed 0020 UTC 26 April 2019
Temperature: 10.0°C (50°F)
Dewpoint: 9.0°C (48°F) [RH = 93%]
Pressure (altimeter): 29.91 inches Hg (1013.0 mb)
Winds: from the NE (40 degrees) at 8 MPH (7 knots; 3.6 m/s)
Visibility: 1.37 miles (2.20 km)
Ceiling: at least 12,000 feet AGL
Clouds: sky clear below 12,000 feet AGL
Weather: BR  (mist)

METAR text: EKCH 252350Z 03006KT 2000 BR NSC 10/09 Q1013 TEMPO 4000
Conditions at: EKCH (COPENHAGEN/KASTR, DK) observed 2350 UTC 25 April 2019
Temperature: 10.0°C (50°F)
Dewpoint: 9.0°C (48°F) [RH = 93%]
Pressure (altimeter): 29.91 inches Hg (1013.0 mb)
Winds: from the NNE (30 degrees) at 7 MPH (6 knots; 3.1 m/s)
Visibility: 1.24 miles (2.00 km)
Ceiling: at least 12,000 feet AGL
Clouds: sky clear below 12,000 feet AGL
Weather: BR  (mist)

METAR text: EKCH 252320Z 03004KT 2800 BR NSC 09/08 Q1013 TEMPO 4000
Conditions at: EKCH (COPENHAGEN/KASTR, DK) observed 2320 UTC 25 April 2019
Temperature: 9.0°C (48°F)
Dewpoint: 8.0°C (46°F) [RH = 93%]
Pressure (altimeter): 29.91 inches Hg (1013.0 mb)
Winds: from the NNE (30 degrees) at 5 MPH (4 knots; 2.1 m/s)
Visibility: 1.74 miles (2.80 km)
Ceiling: at least 12,000 feet AGL
Clouds: sky clear below 12,000 feet AGL
Weather: BR  (mist)

METAR text: EKCH 252250Z 10003KT 2800 BR NSC 09/08 Q1013 TEMPO 4000
Conditions at: EKCH (COPENHAGEN/KASTR, DK) observed 2250 UTC 25 April 2019
Temperature: 9.0°C (48°F)
Dewpoint: 8.0°C (46°F) [RH = 93%]
Pressure (altimeter): 29.91 inches Hg (1013.0 mb)
Winds: from the E (100 degrees) at 3 MPH (3 knots; 1.5 m/s)
Visibility: 1.74 miles (2.80 km)
Ceiling: at least 12,000 feet AGL
Clouds: sky clear below 12,000 feet AGL
Weather: BR  (mist)

METAR text: EKCH 252220Z 12004KT 3000 BR NSC 10/09 Q1013 TEMPO 6000
Conditions at: EKCH (COPENHAGEN/KASTR, DK) observed 2220 UTC 25 April 2019
Temperature: 10.0°C (50°F)
Dewpoint: 9.0°C (48°F) [RH = 93%]
Pressure (altimeter): 29.91 inches Hg (1013.0 mb)
Winds: from the ESE (120 degrees) at 5 MPH (4 knots; 2.1 m/s)
Visibility: 1.86 miles (2.99 km)
Ceiling: at least 12,000 feet AGL
Clouds: sky clear below 12,000 feet AGL
Weather: BR  (mist)

METAR text: EKCH 252150Z 12005KT 080V160 3500 BR NSC 11/09 Q1013 TEMPO 6000
Conditions at: EKCH (COPENHAGEN/KASTR, DK) observed 2150 UTC 25 April 2019
Temperature: 11.0°C (52°F)
Dewpoint: 9.0°C (48°F) [RH = 87%]
Pressure (altimeter): 29.91 inches Hg (1013.0 mb)
Winds: from the ESE (120 degrees) at 6 MPH (5 knots; 2.6 m/s)
Visibility: 2.17 miles (3.49 km)
Ceiling: at least 12,000 feet AGL
Clouds: sky clear below 12,000 feet AGL
Weather: BR  (mist)

METAR text: EKCH 252120Z 15009KT 4000 BR NSC 11/09 Q1013 TEMPO 6000
Conditions at: EKCH (COPENHAGEN/KASTR, DK) observed 2120 UTC 25 April 2019
Temperature: 11.0°C (52°F)
Dewpoint: 9.0°C (48°F) [RH = 87%]
Pressure (altimeter): 29.91 inches Hg (1013.0 mb)
Winds: from the SSE (150 degrees) at 10 MPH (9 knots; 4.6 m/s)
Visibility: 2.49 miles (4.01 km)
Ceiling: at least 12,000 feet AGL
Clouds: sky clear below 12,000 feet AGL
Weather: BR  (mist)

METAR text: EKCH 252050Z 16007KT 4000 BR NSC 11/10 Q1013 TEMPO 6000
Conditions at: EKCH (COPENHAGEN/KASTR, DK) observed 2050 UTC 25 April 2019
Temperature: 11.0°C (52°F)
Dewpoint: 10.0°C (50°F) [RH = 94%]
Pressure (altimeter): 29.91 inches Hg (1013.0 mb)
Winds: from the SSE (160 degrees) at 8 MPH (7 knots; 3.6 m/s)
Visibility: 2.49 miles (4.01 km)
Ceiling: at least 12,000 feet AGL
Clouds: sky clear below 12,000 feet AGL
Weather: BR  (mist)

METAR text: EKCH 252020Z 16006KT 6000 NSC 12/10 Q1013 NOSIG
Conditions at: EKCH (COPENHAGEN/KASTR, DK) observed 2020 UTC 25 April 2019
Temperature: 12.0°C (54°F)
Dewpoint: 10.0°C (50°F) [RH = 88%]
Pressure (altimeter): 29.91 inches Hg (1013.0 mb)
Winds: from the SSE (160 degrees) at 7 MPH (6 knots; 3.1 m/s)
Visibility: 4 miles ( 6 km)
Ceiling: at least 12,000 feet AGL
Clouds: sky clear below 12,000 feet AGL
Weather: no significant weather observed at this time

METAR text: EKCH 251950Z 16006KT 9000 NSC 13/11 Q1013 NOSIG
Conditions at: EKCH (COPENHAGEN/KASTR, DK) observed 1950 UTC 25 April 2019
Temperature: 13.0°C (55°F)
Dewpoint: 11.0°C (52°F) [RH = 88%]
Pressure (altimeter): 29.91 inches Hg (1013.0 mb)
Winds: from the SSE (160 degrees) at 7 MPH (6 knots; 3.1 m/s)
Visibility: 6 miles ( 9 km)
Ceiling: at least 12,000 feet AGL
Clouds: sky clear below 12,000 feet AGL
Weather: no significant weather observed at this time

METAR text: EKCH 251920Z 16007KT CAVOK 13/11 Q1013 NOSIG
Conditions at: EKCH (COPENHAGEN/KASTR, DK) observed 1920 UTC 25 April 2019
Temperature: 13.0°C (55°F)
Dewpoint: 11.0°C (52°F) [RH = 88%]
Pressure (altimeter): 29.91 inches Hg (1013.0 mb)
Winds: from the SSE (160 degrees) at 8 MPH (7 knots; 3.6 m/s)
Visibility: 6 or more miles (10+ km)
Ceiling: ceiling and visibility are OK
Clouds: unknown
Weather: no significant weather observed at this time

METAR text: EKCH 251850Z 15006KT CAVOK 13/11 Q1013 NOSIG
Conditions at: EKCH (COPENHAGEN/KASTR, DK) observed 1850 UTC 25 April 2019
Temperature: 13.0°C (55°F)
Dewpoint: 11.0°C (52°F) [RH = 88%]
Pressure (altimeter): 29.91 inches Hg (1013.0 mb)
Winds: from the SSE (150 degrees) at 7 MPH (6 knots; 3.1 m/s)
Visibility: 6 or more miles (10+ km)
Ceiling: ceiling and visibility are OK
Clouds: unknown
Weather: no significant weather observed at this time

METAR text: EKCH 251820Z 12007KT CAVOK 14/11 Q1012 NOSIG
Conditions at: EKCH (COPENHAGEN/KASTR, DK) observed 1820 UTC 25 April 2019
Temperature: 14.0°C (57°F)
Dewpoint: 11.0°C (52°F) [RH = 82%]
Pressure (altimeter): 29.88 inches Hg (1012.0 mb)
Winds: from the ESE (120 degrees) at 8 MPH (7 knots; 3.6 m/s)
Visibility: 6 or more miles (10+ km)
Ceiling: ceiling and visibility are OK
Clouds: unknown
Weather: no significant weather observed at this time

METAR text: EKCH 251750Z 13005KT CAVOK 13/10 Q1013 NOSIG
Conditions at: EKCH (COPENHAGEN/KASTR, DK) observed 1750 UTC 25 April 2019
Temperature: 13.0°C (55°F)
Dewpoint: 10.0°C (50°F) [RH = 82%]
Pressure (altimeter): 29.91 inches Hg (1013.0 mb)
Winds: from the SE (130 degrees) at 6 MPH (5 knots; 2.6 m/s)
Visibility: 6 or more miles (10+ km)
Ceiling: ceiling and visibility are OK
Clouds: unknown
Weather: no significant weather observed at this time

METAR text: EKCH 251720Z 15004KT CAVOK 15/11 Q1013 NOSIG
Conditions at: EKCH (COPENHAGEN/KASTR, DK) observed 1720 UTC 25 April 2019
Temperature: 15.0°C (59°F)
Dewpoint: 11.0°C (52°F) [RH = 77%]
Pressure (altimeter): 29.91 inches Hg (1013.0 mb)
Winds: from the SSE (150 degrees) at 5 MPH (4 knots; 2.1 m/s)
Visibility: 6 or more miles (10+ km)
Ceiling: ceiling and visibility are OK
Clouds: unknown
Weather: no significant weather observed at this time

METAR text: EKCH 251650Z 16007KT CAVOK 15/11 Q1013 NOSIG
Conditions at: EKCH (COPENHAGEN/KASTR, DK) observed 1650 UTC 25 April 2019
Temperature: 15.0°C (59°F)
Dewpoint: 11.0°C (52°F) [RH = 77%]
Pressure (altimeter): 29.91 inches Hg (1013.0 mb)
Winds: from the SSE (160 degrees) at 8 MPH (7 knots; 3.6 m/s)
Visibility: 6 or more miles (10+ km)
Ceiling: ceiling and visibility are OK
Clouds: unknown
Weather: no significant weather observed at this time

METAR text: EKCH 251620Z 16008KT CAVOK 16/11 Q1013 NOSIG
Conditions at: EKCH (COPENHAGEN/KASTR, DK) observed 1620 UTC 25 April 2019
Temperature: 16.0°C (61°F)
Dewpoint: 11.0°C (52°F) [RH = 72%]
Pressure (altimeter): 29.91 inches Hg (1013.0 mb)
Winds: from the SSE (160 degrees) at 9 MPH (8 knots; 4.1 m/s)
Visibility: 6 or more miles (10+ km)
Ceiling: ceiling and visibility are OK
Clouds: unknown
Weather: no significant weather observed at this time

METAR text: EKCH 251550Z 16009KT CAVOK 15/11 Q1013 NOSIG
Conditions at: EKCH (COPENHAGEN/KASTR, DK) observed 1550 UTC 25 April 2019
Temperature: 15.0°C (59°F)
Dewpoint: 11.0°C (52°F) [RH = 77%]
Pressure (altimeter): 29.91 inches Hg (1013.0 mb)
Winds: from the SSE (160 degrees) at 10 MPH (9 knots; 4.6 m/s)
Visibility: 6 or more miles (10+ km)
Ceiling: ceiling and visibility are OK
Clouds: unknown
Weather: no significant weather observed at this time

METAR text: EKCH 251520Z 17009KT CAVOK 15/11 Q1013 NOSIG
Conditions at: EKCH (COPENHAGEN/KASTR, DK) observed 1520 UTC 25 April 2019
Temperature: 15.0°C (59°F)
Dewpoint: 11.0°C (52°F) [RH = 77%]
Pressure (altimeter): 29.91 inches Hg (1013.0 mb)
Winds: from the S (170 degrees) at 10 MPH (9 knots; 4.6 m/s)
Visibility: 6 or more miles (10+ km)
Ceiling: ceiling and visibility are OK
Clouds: unknown
Weather: no significant weather observed at this time

METAR text: EKCH 251450Z 15007KT CAVOK 16/12 Q1012 NOSIG
Conditions at: EKCH (COPENHAGEN/KASTR, DK) observed 1450 UTC 25 April 2019
Temperature: 16.0°C (61°F)
Dewpoint: 12.0°C (54°F) [RH = 77%]
Pressure (altimeter): 29.88 inches Hg (1012.0 mb)
Winds: from the SSE (150 degrees) at 8 MPH (7 knots; 3.6 m/s)
Visibility: 6 or more miles (10+ km)
Ceiling: ceiling and visibility are OK
Clouds: unknown
Weather: no significant weather observed at this time

METAR text: EKCH 251420Z 16009KT CAVOK 16/11 Q1012 NOSIG
Conditions at: EKCH (COPENHAGEN/KASTR, DK) observed 1420 UTC 25 April 2019
Temperature: 16.0°C (61°F)
Dewpoint: 11.0°C (52°F) [RH = 72%]
Pressure (altimeter): 29.88 inches Hg (1012.0 mb)
Winds: from the SSE (160 degrees) at 10 MPH (9 knots; 4.6 m/s)
Visibility: 6 or more miles (10+ km)
Ceiling: ceiling and visibility are OK
Clouds: unknown
Weather: no significant weather observed at this time

METAR text: EKCH 251350Z 15006KT CAVOK 17/11 Q1012
Conditions at: EKCH (COPENHAGEN/KASTR, DK) observed 1350 UTC 25 April 2019
Temperature: 17.0°C (63°F)
Dewpoint: 11.0°C (52°F) [RH = 68%]
Pressure (altimeter): 29.88 inches Hg (1012.0 mb)
Winds: from the SSE (150 degrees) at 7 MPH (6 knots; 3.1 m/s)
Visibility: 6 or more miles (10+ km)
Ceiling: ceiling and visibility are OK
Clouds: unknown
Weather: no significant weather observed at this time

METAR text: EKCH 251320Z AUTO 16008KT 9999NDV NCD 17/11 Q1012 NOSIG
Conditions at: EKCH (COPENHAGEN/KASTR, DK) observed 1320 UTC 25 April 2019
Temperature: 17.0°C (63°F)
Dewpoint: 11.0°C (52°F) [RH = 68%]
Pressure (altimeter): 29.88 inches Hg (1012.0 mb)
Winds: from the SSE (160 degrees) at 9 MPH (8 knots; 4.1 m/s)
Visibility: missing
Ceiling: at least 12,000 feet AGL
Clouds: sky clear below 12,000 feet AGL
Weather: no significant weather observed at this time

METAR text: EKCH 251250Z AUTO 16009KT 9999NDV NCD 17/11 Q1012 NOSIG
Conditions at: EKCH (COPENHAGEN/KASTR, DK) observed 1250 UTC 25 April 2019
Temperature: 17.0°C (63°F)
Dewpoint: 11.0°C (52°F) [RH = 68%]
Pressure (altimeter): 29.88 inches Hg (1012.0 mb)
Winds: from the SSE (160 degrees) at 10 MPH (9 knots; 4.6 m/s)
Visibility: missing
Ceiling: at least 12,000 feet AGL
Clouds: sky clear below 12,000 feet AGL
Weather: no significant weather observed at this time

METAR text: EKCH 251220Z AUTO 15008KT 9999NDV NCD 16/11 Q1011 NOSIG
Conditions at: EKCH (COPENHAGEN/KASTR, DK) observed 1220 UTC 25 April 2019
Temperature: 16.0°C (61°F)
Dewpoint: 11.0°C (52°F) [RH = 72%]
Pressure (altimeter): 29.85 inches Hg (1011.0 mb)
Winds: from the SSE (150 degrees) at 9 MPH (8 knots; 4.1 m/s)
Visibility: missing
Ceiling: at least 12,000 feet AGL
Clouds: sky clear below 12,000 feet AGL
Weather: no significant weather observed at this time

METAR text: EKCH 251150Z 16008KT 9000 NSC 16/10 Q1011
Conditions at: EKCH (COPENHAGEN/KASTR, DK) observed 1150 UTC 25 April 2019
Temperature: 16.0°C (61°F)
Dewpoint: 10.0°C (50°F) [RH = 68%]
Pressure (altimeter): 29.85 inches Hg (1011.0 mb)
Winds: from the SSE (160 degrees) at 9 MPH (8 knots; 4.1 m/s)
Visibility: 6 miles ( 9 km)
Ceiling: at least 12,000 feet AGL
Clouds: sky clear below 12,000 feet AGL
Weather: no significant weather observed at this time

METAR text: EKCH 251120Z 16007KT CAVOK 14/10 Q1011
Conditions at: EKCH (COPENHAGEN/KASTR, DK) observed 1120 UTC 25 April 2019
Temperature: 14.0°C (57°F)
Dewpoint: 10.0°C (50°F) [RH = 77%]
Pressure (altimeter): 29.85 inches Hg (1011.0 mb)
Winds: from the SSE (160 degrees) at 8 MPH (7 knots; 3.6 m/s)
Visibility: 6 or more miles (10+ km)
Ceiling: ceiling and visibility are OK
Clouds: unknown
Weather: no significant weather observed at this time

METAR text: EKCH 251050Z 15009KT 9000 NSC 14/10 Q1011
Conditions at: EKCH (COPENHAGEN/KASTR, DK) observed 1050 UTC 25 April 2019
Temperature: 14.0°C (57°F)
Dewpoint: 10.0°C (50°F) [RH = 77%]
Pressure (altimeter): 29.85 inches Hg (1011.0 mb)
Winds: from the SSE (150 degrees) at 10 MPH (9 knots; 4.6 m/s)
Visibility: 6 miles ( 9 km)
Ceiling: at least 12,000 feet AGL
Clouds: sky clear below 12,000 feet AGL
Weather: no significant weather observed at this time

METAR text: EKCH 251020Z 15009KT 9000 NSC 14/11 Q1011
Conditions at: EKCH (COPENHAGEN/KASTR, DK) observed 1020 UTC 25 April 2019
Temperature: 14.0°C (57°F)
Dewpoint: 11.0°C (52°F) [RH = 82%]
Pressure (altimeter): 29.85 inches Hg (1011.0 mb)
Winds: from the SSE (150 degrees) at 10 MPH (9 knots; 4.6 m/s)
Visibility: 6 miles ( 9 km)
Ceiling: at least 12,000 feet AGL
Clouds: sky clear below 12,000 feet AGL
Weather: no significant weather observed at this time

METAR text: EKCH 250950Z 16008KT 9000 NSC 14/10 Q1011
Conditions at: EKCH (COPENHAGEN/KASTR, DK) observed 0950 UTC 25 April 2019
Temperature: 14.0°C (57°F)
Dewpoint: 10.0°C (50°F) [RH = 77%]
Pressure (altimeter): 29.85 inches Hg (1011.0 mb)
Winds: from the SSE (160 degrees) at 9 MPH (8 knots; 4.1 m/s)
Visibility: 6 miles ( 9 km)
Ceiling: at least 12,000 feet AGL
Clouds: sky clear below 12,000 feet AGL
Weather: no significant weather observed at this time

METAR text: EKCH 250920Z 14007KT CAVOK 13/10 Q1011
Conditions at: EKCH (COPENHAGEN/KASTR, DK) observed 0920 UTC 25 April 2019
Temperature: 13.0°C (55°F)
Dewpoint: 10.0°C (50°F) [RH = 82%]
Pressure (altimeter): 29.85 inches Hg (1011.0 mb)
Winds: from the SE (140 degrees) at 8 MPH (7 knots; 3.6 m/s)
Visibility: 6 or more miles (10+ km)
Ceiling: ceiling and visibility are OK
Clouds: unknown
Weather: no significant weather observed at this time

METAR text: EKCH 250850Z 15010KT CAVOK 13/11 Q1010
Conditions at: EKCH (COPENHAGEN/KASTR, DK) observed 0850 UTC 25 April 2019
Temperature: 13.0°C (55°F)
Dewpoint: 11.0°C (52°F) [RH = 88%]
Pressure (altimeter): 29.82 inches Hg (1010.0 mb)
Winds: from the SSE (150 degrees) at 12 MPH (10 knots; 5.1 m/s)
Visibility: 6 or more miles (10+ km)
Ceiling: ceiling and visibility are OK
Clouds: unknown
Weather: no significant weather observed at this time

METAR text: EKCH 250820Z AUTO 15008KT 9999NDV NCD 12/10 Q1010 NOSIG
Conditions at: EKCH (COPENHAGEN/KASTR, DK) observed 0820 UTC 25 April 2019
Temperature: 12.0°C (54°F)
Dewpoint: 10.0°C (50°F) [RH = 88%]
Pressure (altimeter): 29.82 inches Hg (1010.0 mb)
Winds: from the SSE (150 degrees) at 9 MPH (8 knots; 4.1 m/s)
Visibility: missing
Ceiling: at least 12,000 feet AGL
Clouds: sky clear below 12,000 feet AGL
Weather: no significant weather observed at this time

METAR text: EKCH 250750Z 16007KT 9999 FEW032 BKN250 12/10 Q1010 BECMG SCT030
Conditions at: EKCH (COPENHAGEN/KASTR, DK) observed 0750 UTC 25 April 2019
Temperature: 12.0°C (54°F)
Dewpoint: 10.0°C (50°F) [RH = 88%]
Pressure (altimeter): 29.82 inches Hg (1010.0 mb)
Winds: from the SSE (160 degrees) at 8 MPH (7 knots; 3.6 m/s)
Visibility: 6 or more miles (10+ km)
Ceiling: 25000 feet AGL
Clouds: few clouds at 3200 feet AGL
broken clouds at 25000 feet AGL
Weather: no significant weather observed at this time

METAR text: EKCH 250720Z 18007KT 150V210 7000 -SHRA FEW032 FEW050CB SCT075 11/09 Q1009 BECMG SCT030
Conditions at: EKCH (COPENHAGEN/KASTR, DK) observed 0720 UTC 25 April 2019
Temperature: 11.0°C (52°F)
Dewpoint: 9.0°C (48°F) [RH = 87%]
Pressure (altimeter): 29.79 inches Hg (1009.0 mb)
Winds: from the S (180 degrees) at 8 MPH (7 knots; 3.6 m/s)
Visibility: 4 miles ( 7 km)
Ceiling: at least 12,000 feet AGL
Clouds: few clouds at 3200 feet AGL
few clouds at 5000 feet AGL
scattered clouds at 7500 feet AGL
Weather: -SHRA  (light rain showers)

METAR text: EKCH 250650Z 11012KT 9999 FEW050CB BKN250 12/09 Q1009 BECMG SCT030
Conditions at: EKCH (COPENHAGEN/KASTR, DK) observed 0650 UTC 25 April 2019
Temperature: 12.0°C (54°F)
Dewpoint: 9.0°C (48°F) [RH = 82%]
Pressure (altimeter): 29.79 inches Hg (1009.0 mb)
Winds: from the ESE (110 degrees) at 14 MPH (12 knots; 6.2 m/s)
Visibility: 6 or more miles (10+ km)
Ceiling: 25000 feet AGL
Clouds: few clouds at 5000 feet AGL
broken clouds at 25000 feet AGL
Weather: no significant weather observed at this time

METAR text: EKCH 250620Z AUTO 13011KT 9999NDV NCD 12/08 Q1009 TEMPO FM0630 SCT050CB
Conditions at: EKCH (COPENHAGEN/KASTR, DK) observed 0620 UTC 25 April 2019
Temperature: 12.0°C (54°F)
Dewpoint: 8.0°C (46°F) [RH = 76%]
Pressure (altimeter): 29.79 inches Hg (1009.0 mb)
Winds: from the SE (130 degrees) at 13 MPH (11 knots; 5.7 m/s)
Visibility: missing
Ceiling: at least 12,000 feet AGL
Clouds: sky clear below 12,000 feet AGL
Weather: no significant weather observed at this time

METAR text: EKCH 250550Z AUTO 13007KT 9999NDV FEW014/// 12/08 Q1009 TEMPO FM0630 SCT050CB
Conditions at: EKCH (COPENHAGEN/KASTR, DK) observed 0550 UTC 25 April 2019
Temperature: 12.0°C (54°F)
Dewpoint: 8.0°C (46°F) [RH = 76%]
Pressure (altimeter): 29.79 inches Hg (1009.0 mb)
Winds: from the SE (130 degrees) at 8 MPH (7 knots; 3.6 m/s)
Visibility: missing
Ceiling: at least 12,000 feet AGL
Clouds: few clouds at 1400 feet AGL
Weather: no significant weather observed at this time

METAR text: EKCH 250520Z AUTO 12005KT 090V150 9999NDV NCD 12/08 Q1008 TEMPO FM250630Z SCT050CB
Conditions at: EKCH (COPENHAGEN/KASTR, DK) observed 0520 UTC 25 April 2019
Temperature: 12.0°C (54°F)
Dewpoint: 8.0°C (46°F) [RH = 76%]
Pressure (altimeter): 29.76 inches Hg (1008.0 mb)
Winds: from the ESE (120 degrees) at 6 MPH (5 knots; 2.6 m/s)
Visibility: missing
Ceiling: at least 12,000 feet AGL
Clouds: sky clear below 12,000 feet AGL
Weather: no significant weather observed at this time

METAR text: EKCH 250450Z AUTO 09006KT 9999NDV NCD 10/08 Q1008 NOSIG
Conditions at: EKCH (COPENHAGEN/KASTR, DK) observed 0450 UTC 25 April 2019
Temperature: 10.0°C (50°F)
Dewpoint: 8.0°C (46°F) [RH = 87%]
Pressure (altimeter): 29.76 inches Hg (1008.0 mb)
Winds: from the E (90 degrees) at 7 MPH (6 knots; 3.1 m/s)
Visibility: missing
Ceiling: at least 12,000 feet AGL
Clouds: sky clear below 12,000 feet AGL
Weather: no significant weather observed at this time

METAR text: EKCH 250420Z AUTO 08006KT 050V110 9999NDV NCD 11/08 Q1008 NOSIG
Conditions at: EKCH (COPENHAGEN/KASTR, DK) observed 0420 UTC 25 April 2019
Temperature: 11.0°C (52°F)
Dewpoint: 8.0°C (46°F) [RH = 82%]
Pressure (altimeter): 29.76 inches Hg (1008.0 mb)
Winds: from the E (80 degrees) at 7 MPH (6 knots; 3.1 m/s)
Visibility: missing
Ceiling: at least 12,000 feet AGL
Clouds: sky clear below 12,000 feet AGL
Weather: no significant weather observed at this time

METAR text: EKCH 250350Z AUTO 07005KT 040V120 9999NDV NCD 10/08 Q1008 NOSIG
Conditions at: EKCH (COPENHAGEN/KASTR, DK) observed 0350 UTC 25 April 2019
Temperature: 10.0°C (50°F)
Dewpoint: 8.0°C (46°F) [RH = 87%]
Pressure (altimeter): 29.76 inches Hg (1008.0 mb)
Winds: from the ENE (70 degrees) at 6 MPH (5 knots; 2.6 m/s)
Visibility: missing
Ceiling: at least 12,000 feet AGL
Clouds: sky clear below 12,000 feet AGL
Weather: no significant weather observed at this time

METAR text: EKCH 250320Z AUTO 11002KT 9999NDV NCD 11/08 Q1009 NOSIG
Conditions at: EKCH (COPENHAGEN/KASTR, DK) observed 0320 UTC 25 April 2019
Temperature: 11.0°C (52°F)
Dewpoint: 8.0°C (46°F) [RH = 82%]
Pressure (altimeter): 29.79 inches Hg (1009.0 mb)
Winds: from the ESE (110 degrees) at 2 MPH (2 knots; 1.0 m/s)
Visibility: missing
Ceiling: at least 12,000 feet AGL
Clouds: sky clear below 12,000 feet AGL
Weather: no significant weather observed at this time

METAR text: EKCH 250250Z AUTO 10006KT 9999NDV NCD 10/08 Q1009 NOSIG
Conditions at: EKCH (COPENHAGEN/KASTR, DK) observed 0250 UTC 25 April 2019
Temperature: 10.0°C (50°F)
Dewpoint: 8.0°C (46°F) [RH = 87%]
Pressure (altimeter): 29.79 inches Hg (1009.0 mb)
Winds: from the E (100 degrees) at 7 MPH (6 knots; 3.1 m/s)
Visibility: missing
Ceiling: at least 12,000 feet AGL
Clouds: sky clear below 12,000 feet AGL
Weather: no significant weather observed at this time

METAR text: EKCH 250220Z AUTO 08006KT 9999NDV NCD 10/07 Q1009 NOSIG
Conditions at: EKCH (COPENHAGEN/KASTR, DK) observed 0220 UTC 25 April 2019
Temperature: 10.0°C (50°F)
Dewpoint: 7.0°C (45°F) [RH = 82%]
Pressure (altimeter): 29.79 inches Hg (1009.0 mb)
Winds: from the E (80 degrees) at 7 MPH (6 knots; 3.1 m/s)
Visibility: missing
Ceiling: at least 12,000 feet AGL
Clouds: sky clear below 12,000 feet AGL
Weather: no significant weather observed at this time

METAR text: EKCH 250150Z AUTO 09006KT 9999NDV NCD 09/07 Q1009 NOSIG
Conditions at: EKCH (COPENHAGEN/KASTR, DK) observed 0150 UTC 25 April 2019
Temperature: 9.0°C (48°F)
Dewpoint: 7.0°C (45°F) [RH = 87%]
Pressure (altimeter): 29.79 inches Hg (1009.0 mb)
Winds: from the E (90 degrees) at 7 MPH (6 knots; 3.1 m/s)
Visibility: missing
Ceiling: at least 12,000 feet AGL
Clouds: sky clear below 12,000 feet AGL
Weather: no significant weather observed at this time

METAR text: EKCH 250120Z AUTO 08006KT 9999NDV NCD 10/07 Q1009 NOSIG
Conditions at: EKCH (COPENHAGEN/KASTR, DK) observed 0120 UTC 25 April 2019
Temperature: 10.0°C (50°F)
Dewpoint: 7.0°C (45°F) [RH = 82%]
Pressure (altimeter): 29.79 inches Hg (1009.0 mb)
Winds: from the E (80 degrees) at 7 MPH (6 knots; 3.1 m/s)
Visibility: missing
Ceiling: at least 12,000 feet AGL
Clouds: sky clear below 12,000 feet AGL
Weather: no significant weather observed at this time

METAR text: EKCH 250050Z AUTO 07008KT 9999NDV NCD 10/07 Q1009 NOSIG
Conditions at: EKCH (COPENHAGEN/KASTR, DK) observed 0050 UTC 25 April 2019
Temperature: 10.0°C (50°F)
Dewpoint: 7.0°C (45°F) [RH = 82%]
Pressure (altimeter): 29.79 inches Hg (1009.0 mb)
Winds: from the ENE (70 degrees) at 9 MPH (8 knots; 4.1 m/s)
Visibility: missing
Ceiling: at least 12,000 feet AGL
Clouds: sky clear below 12,000 feet AGL
Weather: no significant weather observed at this time

METAR text: EKCH 250020Z AUTO 08009KT 9999NDV NCD 10/07 Q1009 NOSIG
Conditions at: EKCH (COPENHAGEN/KASTR, DK) observed 0020 UTC 25 April 2019
Temperature: 10.0°C (50°F)
Dewpoint: 7.0°C (45°F) [RH = 82%]
Pressure (altimeter): 29.79 inches Hg (1009.0 mb)
Winds: from the E (80 degrees) at 10 MPH (9 knots; 4.6 m/s)
Visibility: missing
Ceiling: at least 12,000 feet AGL
Clouds: sky clear below 12,000 feet AGL
Weather: no significant weather observed at this time

METAR text: EKCH 242350Z AUTO 09008KT 9999NDV NCD 10/08 Q1009 NOSIG
Conditions at: EKCH (COPENHAGEN/KASTR, DK) observed 2350 UTC 24 April 2019
Temperature: 10.0°C (50°F)
Dewpoint: 8.0°C (46°F) [RH = 87%]
Pressure (altimeter): 29.79 inches Hg (1009.0 mb)
Winds: from the E (90 degrees) at 9 MPH (8 knots; 4.1 m/s)
Visibility: missing
Ceiling: at least 12,000 feet AGL
Clouds: sky clear below 12,000 feet AGL
Weather: no significant weather observed at this time

METAR text: EKCH 242320Z AUTO 09006KT 9999NDV NCD 10/07 Q1009 NOSIG
Conditions at: EKCH (COPENHAGEN/KASTR, DK) observed 2320 UTC 24 April 2019
Temperature: 10.0°C (50°F)
Dewpoint: 7.0°C (45°F) [RH = 82%]
Pressure (altimeter): 29.79 inches Hg (1009.0 mb)
Winds: from the E (90 degrees) at 7 MPH (6 knots; 3.1 m/s)
Visibility: missing
Ceiling: at least 12,000 feet AGL
Clouds: sky clear below 12,000 feet AGL
Weather: no significant weather observed at this time

METAR text: EKCH 242250Z AUTO 09007KT 9999NDV NCD 10/07 Q1009 NOSIG
Conditions at: EKCH (COPENHAGEN/KASTR, DK) observed 2250 UTC 24 April 2019
Temperature: 10.0°C (50°F)
Dewpoint: 7.0°C (45°F) [RH = 82%]
Pressure (altimeter): 29.79 inches Hg (1009.0 mb)
Winds: from the E (90 degrees) at 8 MPH (7 knots; 3.6 m/s)
Visibility: missing
Ceiling: at least 12,000 feet AGL
Clouds: sky clear below 12,000 feet AGL
Weather: no significant weather observed at this time

METAR text: EKCH 242220Z AUTO 09007KT 9999NDV NCD 10/08 Q1010 NOSIG
Conditions at: EKCH (COPENHAGEN/KASTR, DK) observed 2220 UTC 24 April 2019
Temperature: 10.0°C (50°F)
Dewpoint: 8.0°C (46°F) [RH = 87%]
Pressure (altimeter): 29.82 inches Hg (1010.0 mb)
Winds: from the E (90 degrees) at 8 MPH (7 knots; 3.6 m/s)
Visibility: missing
Ceiling: at least 12,000 feet AGL
Clouds: sky clear below 12,000 feet AGL
Weather: no significant weather observed at this time

METAR text: EKCH 242150Z AUTO 10007KT 9999NDV NCD 11/08 Q1010 NOSIG
Conditions at: EKCH (COPENHAGEN/KASTR, DK) observed 2150 UTC 24 April 2019
Temperature: 11.0°C (52°F)
Dewpoint: 8.0°C (46°F) [RH = 82%]
Pressure (altimeter): 29.82 inches Hg (1010.0 mb)
Winds: from the E (100 degrees) at 8 MPH (7 knots; 3.6 m/s)
Visibility: missing
Ceiling: at least 12,000 feet AGL
Clouds: sky clear below 12,000 feet AGL
Weather: no significant weather observed at this time

METAR text: EKCH 242120Z AUTO 09008KT 9999NDV NCD 11/07 Q1010 NOSIG
Conditions at: EKCH (COPENHAGEN/KASTR, DK) observed 2120 UTC 24 April 2019
Temperature: 11.0°C (52°F)
Dewpoint: 7.0°C (45°F) [RH = 76%]
Pressure (altimeter): 29.82 inches Hg (1010.0 mb)
Winds: from the E (90 degrees) at 9 MPH (8 knots; 4.1 m/s)
Visibility: missing
Ceiling: at least 12,000 feet AGL
Clouds: sky clear below 12,000 feet AGL
Weather: no significant weather observed at this time

METAR text: EKCH 242050Z AUTO 09007KT 9999NDV NCD 11/07 Q1010 NOSIG
Conditions at: EKCH (COPENHAGEN/KASTR, DK) observed 2050 UTC 24 April 2019
Temperature: 11.0°C (52°F)
Dewpoint: 7.0°C (45°F) [RH = 76%]
Pressure (altimeter): 29.82 inches Hg (1010.0 mb)
Winds: from the E (90 degrees) at 8 MPH (7 knots; 3.6 m/s)
Visibility: missing
Ceiling: at least 12,000 feet AGL
Clouds: sky clear below 12,000 feet AGL
Weather: no significant weather observed at this time

METAR text: EKCH 242020Z AUTO 08006KT 9999NDV NCD 11/07 Q1010 NOSIG
Conditions at: EKCH (COPENHAGEN/KASTR, DK) observed 2020 UTC 24 April 2019
Temperature: 11.0°C (52°F)
Dewpoint: 7.0°C (45°F) [RH = 76%]
Pressure (altimeter): 29.82 inches Hg (1010.0 mb)
Winds: from the E (80 degrees) at 7 MPH (6 knots; 3.1 m/s)
Visibility: missing
Ceiling: at least 12,000 feet AGL
Clouds: sky clear below 12,000 feet AGL
Weather: no significant weather observed at this time

METAR text: EKCH 241950Z AUTO 09009KT 9999NDV NCD 12/07 Q1010 NOSIG
Conditions at: EKCH (COPENHAGEN/KASTR, DK) observed 1950 UTC 24 April 2019
Temperature: 12.0°C (54°F)
Dewpoint: 7.0°C (45°F) [RH = 71%]
Pressure (altimeter): 29.82 inches Hg (1010.0 mb)
Winds: from the E (90 degrees) at 10 MPH (9 knots; 4.6 m/s)
Visibility: missing
Ceiling: at least 12,000 feet AGL
Clouds: sky clear below 12,000 feet AGL
Weather: no significant weather observed at this time

METAR text: EKCH 241920Z AUTO 08012KT 9999NDV NCD 13/07 Q1010 NOSIG
Conditions at: EKCH (COPENHAGEN/KASTR, DK) observed 1920 UTC 24 April 2019
Temperature: 13.0°C (55°F)
Dewpoint: 7.0°C (45°F) [RH = 67%]
Pressure (altimeter): 29.82 inches Hg (1010.0 mb)
Winds: from the E (80 degrees) at 14 MPH (12 knots; 6.2 m/s)
Visibility: missing
Ceiling: at least 12,000 feet AGL
Clouds: sky clear below 12,000 feet AGL
Weather: no significant weather observed at this time

METAR text: EKCH 241850Z AUTO 08010KT 050V110 9999NDV NCD 12/07 Q1009 NOSIG
Conditions at: EKCH (COPENHAGEN/KASTR, DK) observed 1850 UTC 24 April 2019
Temperature: 12.0°C (54°F)
Dewpoint: 7.0°C (45°F) [RH = 71%]
Pressure (altimeter): 29.79 inches Hg (1009.0 mb)
Winds: from the E (80 degrees) at 12 MPH (10 knots; 5.1 m/s)
Visibility: missing
Ceiling: at least 12,000 feet AGL
Clouds: sky clear below 12,000 feet AGL
Weather: no significant weather observed at this time

METAR text: EKCH 241820Z AUTO 08009KT 9999NDV NCD 13/08 Q1009 NOSIG
Conditions at: EKCH (COPENHAGEN/KASTR, DK) observed 1820 UTC 24 April 2019
Temperature: 13.0°C (55°F)
Dewpoint: 8.0°C (46°F) [RH = 72%]
Pressure (altimeter): 29.79 inches Hg (1009.0 mb)
Winds: from the E (80 degrees) at 10 MPH (9 knots; 4.6 m/s)
Visibility: missing
Ceiling: at least 12,000 feet AGL
Clouds: sky clear below 12,000 feet AGL
Weather: no significant weather observed at this time

METAR text: EKCH 241750Z AUTO 10008KT 9999NDV NCD 14/07 Q1010 NOSIG
Conditions at: EKCH (COPENHAGEN/KASTR, DK) observed 1750 UTC 24 April 2019
Temperature: 14.0°C (57°F)
Dewpoint: 7.0°C (45°F) [RH = 63%]
Pressure (altimeter): 29.82 inches Hg (1010.0 mb)
Winds: from the E (100 degrees) at 9 MPH (8 knots; 4.1 m/s)
Visibility: missing
Ceiling: at least 12,000 feet AGL
Clouds: sky clear below 12,000 feet AGL
Weather: no significant weather observed at this time

METAR text: EKCH 241720Z AUTO 10010KT 9999NDV NCD 15/07 Q1009 NOSIG
Conditions at: EKCH (COPENHAGEN/KASTR, DK) observed 1720 UTC 24 April 2019
Temperature: 15.0°C (59°F)
Dewpoint: 7.0°C (45°F) [RH = 59%]
Pressure (altimeter): 29.79 inches Hg (1009.0 mb)
Winds: from the E (100 degrees) at 12 MPH (10 knots; 5.1 m/s)
Visibility: missing
Ceiling: at least 12,000 feet AGL
Clouds: sky clear below 12,000 feet AGL
Weather: no significant weather observed at this time

METAR text: EKCH 241650Z AUTO 10010KT 9999NDV NCD 15/07 Q1010 NOSIG
Conditions at: EKCH (COPENHAGEN/KASTR, DK) observed 1650 UTC 24 April 2019
Temperature: 15.0°C (59°F)
Dewpoint: 7.0°C (45°F) [RH = 59%]
Pressure (altimeter): 29.82 inches Hg (1010.0 mb)
Winds: from the E (100 degrees) at 12 MPH (10 knots; 5.1 m/s)
Visibility: missing
Ceiling: at least 12,000 feet AGL
Clouds: sky clear below 12,000 feet AGL
Weather: no significant weather observed at this time

METAR text: EKCH 241620Z AUTO 12011KT 9999NDV NCD 16/07 Q1010 NOSIG
Conditions at: EKCH (COPENHAGEN/KASTR, DK) observed 1620 UTC 24 April 2019
Temperature: 16.0°C (61°F)
Dewpoint: 7.0°C (45°F) [RH = 55%]
Pressure (altimeter): 29.82 inches Hg (1010.0 mb)
Winds: from the ESE (120 degrees) at 13 MPH (11 knots; 5.7 m/s)
Visibility: missing
Ceiling: at least 12,000 feet AGL
Clouds: sky clear below 12,000 feet AGL
Weather: no significant weather observed at this time

METAR text: EKCH 241550Z AUTO 12012KT 9999NDV NCD 15/07 Q1010 NOSIG
Conditions at: EKCH (COPENHAGEN/KASTR, DK) observed 1550 UTC 24 April 2019
Temperature: 15.0°C (59°F)
Dewpoint: 7.0°C (45°F) [RH = 59%]
Pressure (altimeter): 29.82 inches Hg (1010.0 mb)
Winds: from the ESE (120 degrees) at 14 MPH (12 knots; 6.2 m/s)
Visibility: missing
Ceiling: at least 12,000 feet AGL
Clouds: sky clear below 12,000 feet AGL
Weather: no significant weather observed at this time

Forecast for: EKCH (COPENHAGEN/KASTR, DK)
Text: TAF EKCH 252257Z 2600/2624 08008KT 9999 FEW030
Forecast period: 0000 to 1700 UTC 26 April 2019
Forecast type: FROM: standard forecast or significant change
Winds: from the E (80 degrees) at 9 MPH (8 knots; 4.1 m/s)
Visibility: 6 or more miles 10+ km)
Ceiling: at least 12,000 feet AGL
Clouds: few clouds at 3000 feet AGL
Weather: no significant weather forecast for this period
Text: TEMPO 2600/2606 2500 BR
Forecast period: 0000 to 0600 UTC 26 April 2019
Forecast type: TEMPORARY: The following changes expected for less than half the time period
Visibility: 1.55 miles (2.49 km)
Ceiling: unknown
Clouds: missing
Weather: BR  (mist)
Text: TEMPO 2617/2624 4000 SHRA BKN008 SCT040CB
Forecast period: 1700 UTC 26 April 2019 to 0000 UTC 27 April 2019
Forecast type: TEMPORARY: The following changes expected for less than half the time period
Visibility: 2.49 miles (4.01 km)
Ceiling: 800 feet AGL
Clouds: broken clouds at 800 feet AGL
scattered clouds at 4000 feet AGL
Weather: SHRA  (rain showers)
Text: BECMG 2617/2620 30010KT
Forecast period: 1700 UTC 26 April 2019 to 0000 UTC 27 April 2019
Forecast type: BECOMING: Conditions expected to become as follows by 2000 UTC 26 April 2019
Winds: from the WNW (300 degrees) at 12 MPH (10 knots; 5.1 m/s)
Visibility: 6 or more miles 10+ km)
Ceiling: at least 12,000 feet AGL
Clouds: few clouds at 3000 feet AGL
Weather: no significant weather forecast for this period